createdAt,value
2023-04-02T00:00:17.862Z,100282.09
2023-04-02T00:02:49.523Z,100272.50
2023-04-02T00:05:51.393Z,100287.31
2023-04-02T00:08:31.232Z,100284.75
2023-04-02T00:11:01.730Z,100282.13
2023-04-02T00:13:35.605Z,100291.75
2023-04-02T00:16:06.883Z,100296.13
2023-04-02T00:18:38.128Z,100298.81
2023-04-02T00:21:14.734Z,100305.88
2023-04-02T00:23:45.208Z,100305.19
2023-04-02T00:26:33.102Z,100305.28
2023-04-02T00:29:02.291Z,100309.81
2023-04-02T00:31:31.007Z,100308.22
2023-04-02T00:34:00.619Z,100319.75
2023-04-02T00:36:34.013Z,100323.38
2023-04-02T00:39:09.038Z,100333.91
2023-04-02T00:41:38.970Z,100329.63
2023-04-02T00:44:07.441Z,100341.88
2023-04-02T00:46:47.042Z,100334.94
2023-04-02T00:49:24.846Z,100337.56
2023-04-02T00:51:57.600Z,100350.66
2023-04-02T00:54:32.136Z,100355.88
2023-04-02T00:57:00.739Z,100355.00
2023-04-02T00:59:31.673Z,100357.66
2023-04-02T01:02:22.550Z,100359.44
2023-04-02T01:04:54.641Z,100363.78
2023-04-02T01:07:45.311Z,100362.91
2023-04-02T01:10:33.843Z,100369.03
2023-04-02T01:13:10.514Z,100377.81
2023-04-02T01:15:42.848Z,100383.91
2023-04-02T01:18:26.684Z,100376.97
2023-04-02T01:21:28.260Z,100378.75
2023-04-02T01:24:04.166Z,100378.81
2023-04-02T01:26:47.028Z,100379.69
2023-04-02T01:29:20.699Z,100384.06
2023-04-02T01:31:50.918Z,100387.56
2023-04-02T01:34:22.911Z,100394.56
2023-04-02T01:37:04.617Z,100388.47
2023-04-02T01:39:46.236Z,100391.94
2023-04-02T01:42:20.611Z,100393.72
2023-04-02T01:44:52.715Z,100400.69
2023-04-02T01:47:24.593Z,100401.63
2023-04-02T01:49:58.124Z,100406.84
2023-04-02T01:52:35.833Z,100407.75
2023-04-02T01:55:04.644Z,100413.00
2023-04-02T01:57:33.281Z,100411.25
2023-04-02T02:00:07.622Z,100414.75
2023-04-02T02:02:43.547Z,100411.28
2023-04-02T02:05:15.748Z,100406.06
2023-04-02T02:07:46.803Z,100414.75
2023-04-02T02:10:20.026Z,100410.38
2023-04-02T02:12:49.035Z,100419.06
2023-04-02T02:15:21.035Z,100429.53
2023-04-02T02:17:50.370Z,100429.53
2023-04-02T02:20:19.167Z,100434.75
2023-04-02T02:22:51.033Z,100439.97
2023-04-02T02:25:22.725Z,100434.69
2023-04-02T02:27:59.625Z,100439.03
2023-04-02T02:30:34.367Z,100441.66
2023-04-02T02:33:07.800Z,100439.88
2023-04-02T02:35:42.576Z,100446.84
2023-04-02T02:38:29.950Z,100443.34
2023-04-02T02:41:08.920Z,100452.91
2023-04-02T02:43:51.293Z,100457.25
2023-04-02T02:46:24.439Z,100465.94
2023-04-02T02:48:55.310Z,100466.84
2023-04-02T02:51:29.578Z,100472.06
2023-04-02T02:54:03.855Z,100469.44
2023-04-02T02:56:36.913Z,100476.44
2023-04-02T02:59:08.723Z,100473.81
2023-04-02T03:01:43.285Z,100478.13
2023-04-02T03:04:12.045Z,100484.28
2023-04-02T03:06:41.898Z,100493.94
2023-04-02T03:09:19.242Z,100489.56
2023-04-02T03:11:53.601Z,100492.19
2023-04-02T03:14:30.931Z,100493.13
2023-04-02T03:17:10.091Z,100496.63
2023-04-02T03:19:45.243Z,100506.19
2023-04-02T03:22:20.403Z,100496.59
2023-04-02T03:24:57.666Z,100509.69
2023-04-02T03:27:32.985Z,100511.41
2023-04-02T03:30:19.885Z,100510.53
2023-04-02T03:32:54.416Z,100515.78
2023-04-02T03:35:31.357Z,100514.91
2023-04-02T03:38:04.869Z,100521.84
2023-04-02T03:40:40.138Z,100522.75
2023-04-02T03:43:19.720Z,100528.84
2023-04-02T03:45:52.757Z,100537.53
2023-04-02T03:48:30.651Z,100543.66
2023-04-02T03:51:04.662Z,100542.75
2023-04-02T03:53:33.245Z,100541.03
2023-04-02T03:56:03.926Z,100546.25
2023-04-02T03:58:39.822Z,100546.25
2023-04-02T04:01:18.721Z,100556.75
2023-04-02T04:03:53.216Z,100561.09
2023-04-02T04:06:27.738Z,100568.94
2023-04-02T04:09:00.925Z,100564.59
2023-04-02T04:11:36.121Z,100563.75
2023-04-02T04:14:11.228Z,100574.19
2023-04-02T04:16:47.555Z,100575.03
2023-04-02T04:19:22.889Z,100574.16
2023-04-02T04:21:54.027Z,100581.16
2023-04-02T04:24:26.956Z,100590.75
2023-04-02T04:27:09.564Z,100589.00
2023-04-02T04:29:50.463Z,100581.19
2023-04-02T04:32:27.837Z,100587.31
2023-04-02T04:35:08.014Z,100589.06
2023-04-02T04:37:42.705Z,100590.78
2023-04-02T04:40:19.922Z,100587.31
2023-04-02T04:42:51.871Z,100585.59
2023-04-02T04:45:37.570Z,100597.78
2023-04-02T04:48:11.840Z,100592.56
2023-04-02T04:50:50.101Z,100596.97
2023-04-02T04:53:22.661Z,100601.34
2023-04-02T04:55:55.537Z,100607.41
2023-04-02T04:58:31.207Z,100612.66
2023-04-02T05:01:07.299Z,100616.16
2023-04-02T05:03:45.576Z,100624.00
2023-04-02T05:06:25.750Z,100636.22
2023-04-02T05:09:00.458Z,100640.59
2023-04-02T05:11:33.561Z,100643.19
2023-04-02T05:14:09.985Z,100649.28
2023-04-02T05:16:42.796Z,100659.75
2023-04-02T05:19:17.950Z,100654.56
2023-04-02T05:21:53.477Z,100660.63
2023-04-02T05:24:41.816Z,100663.28
2023-04-02T05:27:20.955Z,100673.72
2023-04-02T05:29:56.922Z,100672.00
2023-04-02T05:32:31.566Z,100674.59
2023-04-02T05:35:02.350Z,100683.31
2023-04-02T05:37:32.426Z,100683.31
2023-04-02T05:40:13.608Z,100688.53
2023-04-02T05:42:46.758Z,100689.41
2023-04-02T05:45:24.357Z,100689.41
2023-04-02T05:48:00.118Z,100692.88
2023-04-02T05:50:37.609Z,100705.06
2023-04-02T05:53:17.853Z,100708.56
2023-04-02T05:55:55.137Z,100709.50
2023-04-02T05:58:36.366Z,100706.00
2023-04-02T06:01:23.124Z,100713.88
2023-04-02T06:04:02.205Z,100716.50
2023-04-02T06:06:47.224Z,100726.09
2023-04-02T06:09:22.836Z,100731.38
2023-04-02T06:11:59.058Z,100745.31
2023-04-02T06:14:27.719Z,100738.34
2023-04-02T06:16:56.105Z,100748.78
2023-04-02T06:19:30.230Z,100750.50
2023-04-02T06:22:08.571Z,100745.31
2023-04-02T06:24:40.780Z,100751.44
2023-04-02T06:27:16.266Z,100755.78
2023-04-02T06:29:51.881Z,100763.63
2023-04-02T06:32:24.332Z,100765.34
2023-04-02T06:34:53.028Z,100769.72
2023-04-02T06:37:28.530Z,100769.69
2023-04-02T06:40:28.899Z,100773.19
2023-04-02T06:42:59.877Z,100770.56
2023-04-02T06:45:54.024Z,100781.00
2023-04-02T06:48:34.362Z,100782.72
2023-04-02T06:51:08.183Z,100794.88
2023-04-02T06:53:40.058Z,100799.22
2023-04-02T06:56:22.227Z,100807.06
2023-04-02T06:58:51.350Z,100802.72
2023-04-02T07:01:25.477Z,100805.34
2023-04-02T07:03:54.008Z,100820.97
2023-04-02T07:06:28.105Z,100822.72
2023-04-02T07:08:59.990Z,100827.06
2023-04-02T07:11:30.468Z,100831.41
2023-04-02T07:14:02.141Z,100840.97
2023-04-02T07:16:32.310Z,100842.72
2023-04-02T07:19:01.280Z,100844.47
2023-04-02T07:21:32.895Z,100845.34
2023-04-02T07:24:01.103Z,100845.38
2023-04-02T07:26:30.494Z,100840.19
2023-04-02T07:28:58.657Z,100857.63
2023-04-02T07:31:28.992Z,100861.97
2023-04-02T07:33:59.912Z,100874.19
2023-04-02T07:36:30.197Z,100875.06
2023-04-02T07:38:58.559Z,100872.47
2023-04-02T07:41:27.631Z,100867.22
2023-04-02T07:43:56.976Z,100881.13
2023-04-02T07:46:26.010Z,100874.19
2023-04-02T07:48:54.340Z,100882.00
2023-04-02T07:51:24.272Z,100894.16
2023-04-02T07:53:56.171Z,100900.28
2023-04-02T07:56:26.692Z,100896.78
2023-04-02T07:58:56.389Z,100911.59
2023-04-02T08:01:26.723Z,100907.22
2023-04-02T08:03:56.821Z,100905.47
2023-04-02T08:06:26.384Z,100902.88
2023-04-02T08:08:54.898Z,100906.31
2023-04-02T08:11:23.106Z,100912.41
2023-04-02T08:13:52.140Z,100915.88
2023-04-02T08:16:23.091Z,100904.53
2023-04-02T08:18:51.324Z,100914.09
2023-04-02T08:21:19.443Z,100918.44
2023-04-02T08:23:47.552Z,100941.97
2023-04-02T08:26:18.938Z,100950.66
2023-04-02T08:28:47.125Z,100953.28
2023-04-02T08:31:15.243Z,100956.78
2023-04-02T08:33:44.857Z,100951.53
2023-04-02T08:36:17.978Z,100946.31
2023-04-02T08:38:46.720Z,100958.47
2023-04-02T08:41:27.457Z,100963.72
2023-04-02T08:44:11.064Z,100967.19
2023-04-02T08:46:45.625Z,100967.19
2023-04-02T08:49:17.486Z,100968.03
2023-04-02T08:51:47.368Z,100975.00
2023-04-02T08:54:23.455Z,100971.50
2023-04-02T08:56:56.970Z,100968.94
2023-04-02T08:59:33.009Z,100977.63
2023-04-02T09:02:08.856Z,100980.22
2023-04-02T09:04:38.844Z,100985.44
2023-04-02T09:07:07.180Z,100986.28
2023-04-02T09:09:39.815Z,100992.38
2023-04-02T09:12:18.650Z,101008.03
2023-04-02T09:14:58.216Z,100997.59
2023-04-02T09:17:27.771Z,101003.75
2023-04-02T09:20:02.916Z,101009.84
2023-04-02T09:22:32.774Z,101022.91
2023-04-02T09:25:03.297Z,101013.34
2023-04-02T09:27:33.795Z,101022.94
2023-04-02T09:30:07.552Z,101016.00
2023-04-02T09:32:44.910Z,101010.78
2023-04-02T09:35:25.353Z,101028.16
2023-04-02T09:38:18.414Z,101032.50
2023-04-02T09:40:51.038Z,101036.84
2023-04-02T09:43:21.247Z,101037.69
2023-04-02T09:45:59.494Z,101042.94
2023-04-02T09:48:31.530Z,101041.19
2023-04-02T09:51:12.677Z,101045.53
2023-04-02T09:53:42.745Z,101043.81
2023-04-02T09:56:13.712Z,101047.31
2023-04-02T09:58:44.107Z,101052.50
2023-04-02T10:01:31.049Z,101063.81
2023-04-02T10:04:00.053Z,101062.06
2023-04-02T10:06:31.995Z,101075.13
2023-04-02T10:09:21.322Z,101065.53
2023-04-02T10:11:51.937Z,101077.72
2023-04-02T10:14:24.151Z,101077.72
2023-04-02T10:16:55.181Z,101093.41
2023-04-02T10:19:30.806Z,101091.66
2023-04-02T10:22:04.882Z,101089.91
2023-04-02T10:24:33.095Z,101090.78
2023-04-02T10:27:17.100Z,101093.38
2023-04-02T10:29:52.711Z,101101.22
2023-04-02T10:32:24.977Z,101089.91
2023-04-02T10:34:59.668Z,101097.75
2023-04-02T10:37:51.266Z,101103.00
2023-04-02T10:40:27.046Z,101109.97
2023-04-02T10:43:08.378Z,101112.53
2023-04-02T10:45:43.692Z,101122.13
2023-04-02T10:48:21.444Z,101122.13
2023-04-02T10:50:55.910Z,101122.13
2023-04-02T10:53:34.947Z,101126.50
2023-04-02T10:56:08.806Z,101133.44
2023-04-02T10:58:44.449Z,101133.44
2023-04-02T11:01:18.896Z,101136.91
2023-04-02T11:03:53.157Z,101138.66
2023-04-02T11:06:24.994Z,101140.38
2023-04-02T11:09:01.221Z,101125.56
2023-04-02T11:11:34.717Z,101130.78
2023-04-02T11:14:06.358Z,101126.44
2023-04-02T11:16:37.727Z,101135.13
2023-04-02T11:19:21.589Z,101141.19
2023-04-02T11:21:59.511Z,101137.69
2023-04-02T11:24:43.710Z,101137.66
2023-04-02T11:27:19.660Z,101136.72
2023-04-02T11:29:52.337Z,101144.56
2023-04-02T11:32:32.118Z,101160.28
2023-04-02T11:35:27.125Z,101163.75
2023-04-02T11:37:58.555Z,101164.66
2023-04-02T11:40:48.526Z,101168.13
2023-04-02T11:43:53.998Z,101172.50
2023-04-02T11:46:43.047Z,101171.63
2023-04-02T11:49:37.983Z,101177.75
2023-04-02T11:52:27.713Z,101171.63
2023-04-02T11:55:00.048Z,101164.53
2023-04-02T11:57:43.874Z,101159.16
2023-04-02T12:00:23.228Z,101173.88
2023-04-02T12:03:04.425Z,101179.06
2023-04-02T12:05:37.744Z,101179.06
2023-04-02T12:08:31.186Z,101185.25
2023-04-02T12:11:01.053Z,101189.72
2023-04-02T12:13:58.576Z,101188.75
2023-04-02T12:16:31.533Z,101194.78
2023-04-02T12:19:01.815Z,101189.47
2023-04-02T12:21:31.194Z,101191.78
2023-04-02T12:24:00.576Z,101187.13
2023-04-02T12:26:37.111Z,101185.38
2023-04-02T12:29:26.753Z,101193.25
2023-04-02T12:31:56.975Z,101189.75
2023-04-02T12:34:26.914Z,101193.28
2023-04-02T12:36:57.265Z,101194.59
2023-04-02T12:39:28.080Z,101198.84
2023-04-02T12:41:57.104Z,101200.84
2023-04-02T12:44:28.792Z,101197.34
2023-04-02T12:46:57.886Z,101192.25
2023-04-02T12:49:35.829Z,101196.91
2023-04-02T12:52:06.014Z,101204.25
2023-04-02T12:54:39.277Z,101190.72
2023-04-02T12:57:49.108Z,101182.16
2023-04-02T13:00:37.536Z,101170.16
2023-04-02T13:03:24.536Z,101168.59
2023-04-02T13:05:56.573Z,101169.53
2023-04-02T13:08:27.407Z,101183.19
2023-04-02T13:10:58.732Z,101180.44
2023-04-02T13:13:31.905Z,101175.56
2023-04-02T13:16:08.011Z,101172.97
2023-04-02T13:18:38.331Z,101190.88
2023-04-02T13:21:07.655Z,101193.94
2023-04-02T13:23:38.225Z,101195.59
2023-04-02T13:26:18.509Z,101181.50
2023-04-02T13:28:58.317Z,101177.97
2023-04-02T13:31:28.888Z,101180.56
2023-04-02T13:33:57.216Z,101180.56
2023-04-02T13:36:25.798Z,101179.66
2023-04-02T13:38:53.837Z,101176.41
2023-04-02T13:41:24.198Z,101162.44
2023-04-02T13:43:53.200Z,101170.59
2023-04-02T13:46:24.317Z,101162.53
2023-04-02T13:48:55.345Z,101164.50
2023-04-02T13:51:26.219Z,101160.69
2023-04-02T13:53:58.180Z,101153.56
2023-04-02T13:56:27.183Z,101149.34
2023-04-02T13:58:55.314Z,101149.16
2023-04-02T14:01:26.386Z,101150.44
2023-04-02T14:03:58.205Z,101157.72
2023-04-02T14:06:41.059Z,101157.66
2023-04-02T14:09:18.807Z,101163.03
2023-04-02T14:11:58.019Z,101158.94
2023-04-02T14:14:40.587Z,101148.28
2023-04-02T14:17:19.740Z,101158.81
2023-04-02T14:20:04.304Z,101155.03
2023-04-02T14:22:46.923Z,101155.34
2023-04-02T14:25:23.987Z,101168.88
2023-04-02T14:28:00.076Z,101163.03
2023-04-02T14:30:38.192Z,101170.31
2023-04-02T14:33:14.380Z,101162.50
2023-04-02T14:35:47.385Z,101157.19
2023-04-02T14:38:23.756Z,101151.56
2023-04-02T14:40:56.995Z,101141.28
2023-04-02T14:43:29.307Z,101144.25
2023-04-02T14:46:00.161Z,101145.00
2023-04-02T14:48:41.108Z,101146.06
2023-04-02T14:51:18.106Z,101142.81
2023-04-02T14:53:55.626Z,101139.72
2023-04-02T14:56:25.847Z,101137.28
2023-04-02T14:59:03.439Z,101139.66
2023-04-02T15:01:38.960Z,101127.16
2023-04-02T15:04:12.486Z,101129.38
2023-04-02T15:06:46.135Z,101121.31
2023-04-02T15:09:20.106Z,101129.88
2023-04-02T15:11:53.983Z,101127.22
2023-04-02T15:14:26.458Z,101131.00
2023-04-02T15:16:54.781Z,101135.63
2023-04-02T15:19:22.898Z,101130.94
2023-04-02T15:22:08.798Z,101137.56
2023-04-02T15:24:47.630Z,101130.50
2023-04-02T15:27:30.881Z,101125.16
2023-04-02T15:30:07.447Z,101124.91
2023-04-02T15:32:38.986Z,101128.34
2023-04-02T15:35:20.570Z,101129.16
2023-04-02T15:38:00.611Z,101127.31
2023-04-02T15:40:40.274Z,101127.28
2023-04-02T15:43:19.880Z,101133.09
2023-04-02T15:45:54.928Z,101144.91
2023-04-02T15:48:35.456Z,101145.16
2023-04-02T15:51:19.763Z,101139.06
2023-04-02T15:54:00.421Z,101137.94
2023-04-02T15:56:41.311Z,101141.66
2023-04-02T15:59:31.764Z,101150.16
2023-04-02T16:02:12.596Z,101149.81
2023-04-02T16:04:49.971Z,101156.53
2023-04-02T16:07:26.006Z,101153.81
2023-04-02T16:10:03.893Z,101163.59
2023-04-02T16:12:33.928Z,101158.50
2023-04-02T16:15:12.129Z,101160.41
2023-04-02T16:17:43.093Z,101170.22
2023-04-02T16:20:23.905Z,101164.22
2023-04-02T16:23:01.452Z,101158.97
2023-04-02T16:25:35.661Z,101160.59
2023-04-02T16:28:14.418Z,101151.78
2023-04-02T16:30:51.870Z,101151.78
2023-04-02T16:33:31.525Z,101157.84
2023-04-02T16:36:11.838Z,101154.22
2023-04-02T16:38:54.072Z,101154.22
2023-04-02T16:41:36.377Z,101152.63
2023-04-02T16:44:14.428Z,101156.50
2023-04-02T16:46:56.202Z,101168.97
2023-04-02T16:49:36.203Z,101176.84
2023-04-02T16:52:23.780Z,101184.56
2023-04-02T16:55:04.268Z,101194.84
2023-04-02T16:57:38.972Z,101185.13
2023-04-02T17:00:18.338Z,101197.44
2023-04-02T17:02:55.987Z,101195.88
2023-04-02T17:05:32.526Z,101196.88
2023-04-02T17:08:14.562Z,101203.94
2023-04-02T17:10:51.505Z,101200.44
2023-04-02T17:13:27.985Z,101200.53
2023-04-02T17:16:04.546Z,101203.25
2023-04-02T17:18:34.532Z,101206.72
2023-04-02T17:21:07.434Z,101219.00
2023-04-02T17:23:55.156Z,101218.22
2023-04-02T17:26:27.175Z,101221.84
2023-04-02T17:28:58.761Z,101216.69
2023-04-02T17:31:30.895Z,101223.78
2023-04-02T17:33:59.128Z,101230.78
2023-04-02T17:36:39.686Z,101229.09
2023-04-02T17:39:18.587Z,101236.19
2023-04-02T17:41:54.379Z,101232.75
2023-04-02T17:44:47.551Z,101237.19
2023-04-02T17:47:21.906Z,101237.22
2023-04-02T17:50:19.549Z,101244.22
2023-04-02T17:52:56.073Z,101243.41
2023-04-02T17:55:37.858Z,101244.28
2023-04-02T17:58:15.589Z,101251.34
2023-04-02T18:00:58.964Z,101246.16
2023-04-02T18:03:41.889Z,101248.81
2023-04-02T18:06:16.937Z,101258.44
2023-04-02T18:08:56.517Z,101268.13
2023-04-02T18:11:32.620Z,101269.91
2023-04-02T18:14:05.826Z,101275.19
2023-04-02T18:16:45.219Z,101272.63
2023-04-02T18:19:18.244Z,101277.06
2023-04-02T18:21:54.960Z,101283.19
2023-04-02T18:24:42.673Z,101284.09
2023-04-02T18:27:27.366Z,101286.75
2023-04-02T18:30:05.423Z,101296.38
2023-04-02T18:32:52.896Z,101296.34
2023-04-02T18:35:26.102Z,101303.34
2023-04-02T18:38:08.632Z,101303.31
2023-04-02T18:40:48.624Z,101299.81
2023-04-02T18:43:28.857Z,101308.50
2023-04-02T18:46:05.140Z,101314.59
2023-04-02T18:48:43.663Z,101311.09
2023-04-02T18:51:17.100Z,101311.06
2023-04-02T18:53:45.793Z,101324.09
2023-04-02T18:56:17.879Z,101318.81
2023-04-02T18:58:52.992Z,101325.78
2023-04-02T19:01:27.946Z,101335.31
2023-04-02T19:04:03.619Z,101333.59
2023-04-02T19:06:37.817Z,101339.66
2023-04-02T19:09:13.681Z,101335.28
2023-04-02T19:11:41.992Z,101348.28
2023-04-02T19:14:14.779Z,101343.81
2023-04-02T19:16:56.481Z,101349.81
2023-04-02T19:19:27.714Z,101350.53
2023-04-02T19:22:11.883Z,101354.75
2023-04-02T19:24:53.456Z,101363.31
2023-04-02T19:27:28.374Z,101372.75
2023-04-02T19:30:08.242Z,101364.75
2023-04-02T19:32:47.226Z,101375.97
2023-04-02T19:35:24.012Z,101370.78
2023-04-02T19:38:01.607Z,101382.03
2023-04-02T19:40:41.052Z,101385.44
2023-04-02T19:43:10.968Z,101387.03
2023-04-02T19:45:40.719Z,101387.81
2023-04-02T19:48:15.156Z,101401.69
2023-04-02T19:50:44.840Z,101401.59
2023-04-02T19:53:13.226Z,101398.09
2023-04-02T19:55:41.756Z,101405.84
2023-04-02T19:58:19.868Z,101408.28
2023-04-02T20:00:48.617Z,101399.41
2023-04-02T20:03:16.767Z,101405.28
2023-04-02T20:05:46.542Z,101414.72
2023-04-02T20:08:14.823Z,101409.41
2023-04-02T20:10:43.742Z,101410.94
2023-04-02T20:13:12.002Z,101419.50
2023-04-02T20:15:40.549Z,101426.34
2023-04-02T20:18:09.455Z,101425.50
2023-04-02T20:20:39.191Z,101436.84
2023-04-02T20:23:08.730Z,101431.69
2023-04-02T20:25:36.892Z,101422.25
2023-04-02T20:28:05.277Z,101424.84
2023-04-02T20:30:33.578Z,101431.75
2023-04-02T20:33:02.348Z,101426.50
2023-04-02T20:35:34.477Z,101429.94
2023-04-02T20:38:03.530Z,101435.19
2023-04-02T20:40:33.019Z,101433.47
2023-04-02T20:43:01.197Z,101433.41
2023-04-02T20:45:29.688Z,101442.06
2023-04-02T20:47:58.106Z,101438.66
2023-04-02T20:50:26.300Z,101449.88
2023-04-02T20:52:57.130Z,101446.28
2023-04-02T20:55:25.413Z,101440.00
2023-04-02T20:57:55.012Z,101452.13
2023-04-02T21:00:23.435Z,101450.34
2023-04-02T21:02:51.555Z,101448.63
2023-04-02T21:05:19.692Z,101455.25
2023-04-02T21:07:48.621Z,101453.09
2023-04-02T21:10:16.954Z,101457.06
2023-04-02T21:12:45.022Z,101456.13
2023-04-02T21:15:14.466Z,101464.78
2023-04-02T21:17:42.596Z,101462.81
2023-04-02T21:20:12.124Z,101467.69
2023-04-02T21:22:40.838Z,101463.25
2023-04-02T21:25:09.672Z,101465.72
2023-04-02T21:27:37.873Z,101475.13
2023-04-02T21:30:06.613Z,101471.31
2023-04-02T21:32:36.134Z,101466.09
2023-04-02T21:35:04.391Z,101469.25
2023-04-02T21:37:32.550Z,101470.03
2023-04-02T21:40:00.606Z,101478.78
2023-04-02T21:42:29.083Z,101469.97
2023-04-02T21:44:57.137Z,101468.13
2023-04-02T21:47:25.483Z,101469.66
2023-04-02T21:49:54.876Z,101477.47
2023-04-02T21:52:23.143Z,101473.94
2023-04-02T21:54:51.179Z,101478.28
2023-04-02T21:57:19.374Z,101474.81
2023-04-02T21:59:47.616Z,101476.44
2023-04-02T22:02:15.848Z,101477.09
2023-04-02T22:04:43.931Z,101469.78
2023-04-02T22:07:13.497Z,101474.63
2023-04-02T22:09:41.755Z,101467.59
2023-04-02T22:12:09.853Z,101469.44
2023-04-02T22:14:37.956Z,101457.50
2023-04-02T22:17:06.213Z,101469.72
2023-04-02T22:19:34.437Z,101466.28
2023-04-02T22:22:02.743Z,101465.72
2023-04-02T22:24:32.218Z,101465.94
2023-04-02T22:27:00.744Z,101462.00
2023-04-02T22:29:28.903Z,101452.88
2023-04-02T22:31:57.126Z,101457.50
2023-04-02T22:34:25.384Z,101466.41
2023-04-02T22:36:53.714Z,101464.13
2023-04-02T22:39:21.842Z,101462.56
2023-04-02T22:41:51.317Z,101460.09
2023-04-02T22:44:19.423Z,101458.44
2023-04-02T22:46:47.561Z,101454.19
2023-04-02T22:49:19.348Z,101456.94
2023-04-02T22:51:48.386Z,101457.75
2023-04-02T22:54:16.533Z,101452.50
2023-04-02T22:56:45.475Z,101454.19
2023-04-02T22:59:15.008Z,101457.63
2023-04-02T23:01:43.528Z,101455.81
2023-04-02T23:04:11.621Z,101454.78
2023-04-02T23:06:39.723Z,101460.69
2023-04-02T23:09:07.773Z,101457.94
2023-04-02T23:11:35.984Z,101455.31
2023-04-02T23:14:04.113Z,101454.34
2023-04-02T23:16:33.598Z,101455.94
2023-04-02T23:19:02.338Z,101455.75
2023-04-02T23:21:30.414Z,101461.81
2023-04-02T23:23:58.484Z,101460.94
2023-04-02T23:26:31.317Z,101462.53
2023-04-02T23:29:00.937Z,101470.16
2023-04-02T23:31:29.515Z,101471.78
2023-04-02T23:33:59.304Z,101477.72
2023-04-02T23:36:29.479Z,101479.38
2023-04-02T23:39:01.331Z,101472.31
2023-04-02T23:41:30.852Z,101485.34
2023-04-02T23:43:59.812Z,101482.78
2023-04-02T23:46:28.551Z,101480.72
2023-04-02T23:48:58.404Z,101473.50
2023-04-02T23:51:26.904Z,101463.66
2023-04-02T23:53:56.584Z,101460.09
2023-04-02T23:56:25.980Z,101458.91
2023-04-02T23:58:54.133Z,101460.44
